createdAt,value
2024-01-16T00:01:21.450Z,92501.80
2024-01-16T00:03:49.237Z,92506.20
2024-01-16T00:06:17.127Z,92511.20
2024-01-16T00:08:44.880Z,92513.80
2024-01-16T00:11:12.925Z,92511.00
2024-01-16T00:13:40.627Z,92511.00
2024-01-16T00:16:08.343Z,92512.80
2024-01-16T00:18:36.273Z,92523.00
2024-01-16T00:21:04.020Z,92514.00
2024-01-16T00:23:34.511Z,92512.80
2024-01-16T00:26:03.525Z,92512.40
2024-01-16T00:28:31.717Z,92503.40
2024-01-16T00:30:59.441Z,92506.60
2024-01-16T00:33:28.819Z,92513.60
2024-01-16T00:35:56.549Z,92514.40
2024-01-16T00:38:25.110Z,92510.80
2024-01-16T00:40:53.227Z,92510.80
2024-01-16T00:43:21.001Z,92506.80
2024-01-16T00:45:49.414Z,92514.60
2024-01-16T00:48:17.482Z,92520.80
2024-01-16T00:50:47.427Z,92528.00
2024-01-16T00:53:15.266Z,92527.80
2024-01-16T00:55:43.169Z,92537.80
2024-01-16T00:58:10.847Z,92543.00
2024-01-16T01:00:42.118Z,92544.40
2024-01-16T01:03:09.994Z,92546.40
2024-01-16T01:05:37.972Z,92544.80
2024-01-16T01:08:06.123Z,92552.60
2024-01-16T01:10:33.893Z,92552.20
2024-01-16T01:13:02.159Z,92552.40
2024-01-16T01:15:29.897Z,92551.60
2024-01-16T01:17:57.748Z,92555.40
2024-01-16T01:20:25.769Z,92554.40
2024-01-16T01:22:53.834Z,92556.60
2024-01-16T01:25:21.505Z,92561.80
2024-01-16T01:27:50.154Z,92562.40
2024-01-16T01:30:17.850Z,92561.00
2024-01-16T01:32:47.737Z,92559.20
2024-01-16T01:35:16.037Z,92562.00
2024-01-16T01:37:43.907Z,92558.00
2024-01-16T01:40:13.783Z,92564.20
2024-01-16T01:42:41.439Z,92568.80
2024-01-16T01:45:09.285Z,92569.00
2024-01-16T01:47:37.006Z,92567.40
2024-01-16T01:50:05.073Z,92568.20
2024-01-16T01:52:32.694Z,92568.60
2024-01-16T01:55:02.304Z,92571.20
2024-01-16T01:57:30.728Z,92572.00
2024-01-16T01:59:58.488Z,92573.60
2024-01-16T02:02:26.256Z,92570.20
2024-01-16T02:04:54.221Z,92574.60
2024-01-16T02:07:22.350Z,92581.20
2024-01-16T02:09:50.515Z,92577.00
2024-01-16T02:12:18.229Z,92586.20
2024-01-16T02:14:45.935Z,92588.40
2024-01-16T02:17:13.784Z,92589.20
2024-01-16T02:19:41.622Z,92595.00
2024-01-16T02:22:12.107Z,92594.80
2024-01-16T02:24:39.830Z,92598.20
2024-01-16T02:27:07.545Z,92601.00
2024-01-16T02:29:38.501Z,92605.60
2024-01-16T02:32:06.903Z,92604.80
2024-01-16T02:34:35.748Z,92608.60
2024-01-16T02:37:03.393Z,92616.80
2024-01-16T02:39:32.029Z,92620.00
2024-01-16T02:41:59.691Z,92620.20
2024-01-16T02:44:27.708Z,92616.20
2024-01-16T02:46:56.050Z,92618.40
2024-01-16T02:49:23.940Z,92624.20
2024-01-16T02:51:51.632Z,92624.00
2024-01-16T02:54:19.502Z,92625.40
2024-01-16T02:56:47.297Z,92630.20
2024-01-16T02:59:15.166Z,92631.80
2024-01-16T03:01:43.285Z,92634.20
2024-01-16T03:04:10.977Z,92627.20
2024-01-16T03:06:38.743Z,92627.20
2024-01-16T03:09:08.102Z,92629.00
2024-01-16T03:11:38.853Z,92632.40
2024-01-16T03:14:07.059Z,92639.80
2024-01-16T03:16:37.004Z,92643.20
2024-01-16T03:19:04.632Z,92642.40
2024-01-16T03:21:32.504Z,92638.60
2024-01-16T03:24:00.831Z,92638.20
2024-01-16T03:26:28.606Z,92635.20
2024-01-16T03:28:56.245Z,92637.80
2024-01-16T03:31:24.974Z,92643.60
2024-01-16T03:33:52.709Z,92641.00
2024-01-16T03:36:20.439Z,92637.20
2024-01-16T03:38:48.177Z,92640.60
2024-01-16T03:41:16.085Z,92641.60
2024-01-16T03:43:44.179Z,92639.20
2024-01-16T03:46:12.109Z,92647.80
2024-01-16T03:48:40.614Z,92651.60
2024-01-16T03:51:08.444Z,92658.20
2024-01-16T03:53:36.222Z,92657.60
2024-01-16T03:56:04.022Z,92657.20
2024-01-16T03:58:31.669Z,92658.40
2024-01-16T04:00:59.795Z,92649.60
2024-01-16T04:03:27.672Z,92650.00
2024-01-16T04:05:55.504Z,92650.40
2024-01-16T04:08:23.297Z,92654.20
2024-01-16T04:10:51.134Z,92659.00
2024-01-16T04:13:19.194Z,92654.00
2024-01-16T04:15:47.188Z,92660.80
2024-01-16T04:18:14.970Z,92665.20
2024-01-16T04:20:42.716Z,92658.20
2024-01-16T04:23:10.709Z,92663.20
2024-01-16T04:25:38.573Z,92666.40
2024-01-16T04:28:06.255Z,92664.80
2024-01-16T04:30:33.893Z,92678.20
2024-01-16T04:33:02.260Z,92679.80
2024-01-16T04:35:30.362Z,92681.00
2024-01-16T04:37:58.107Z,92682.00
2024-01-16T04:40:25.710Z,92683.60
2024-01-16T04:42:53.368Z,92689.20
2024-01-16T04:45:21.048Z,92694.80
2024-01-16T04:47:48.767Z,92692.80
2024-01-16T04:50:16.579Z,92696.80
2024-01-16T04:52:44.571Z,92703.80
2024-01-16T04:55:12.250Z,92707.40
2024-01-16T04:57:40.033Z,92705.00
2024-01-16T05:00:08.375Z,92709.20
2024-01-16T05:02:36.494Z,92715.20
2024-01-16T05:05:04.833Z,92713.40
2024-01-16T05:07:32.836Z,92717.40
2024-01-16T05:10:00.782Z,92724.80
2024-01-16T05:12:28.627Z,92729.40
2024-01-16T05:14:56.425Z,92732.20
2024-01-16T05:17:25.013Z,92733.00
2024-01-16T05:19:52.794Z,92736.60
2024-01-16T05:22:20.479Z,92739.00
2024-01-16T05:24:48.144Z,92747.40
2024-01-16T05:27:16.021Z,92746.40
2024-01-16T05:29:44.833Z,92748.40
2024-01-16T05:32:13.241Z,92749.20
2024-01-16T05:34:41.169Z,92754.20
2024-01-16T05:37:08.940Z,92761.60
2024-01-16T05:39:37.873Z,92759.80
2024-01-16T05:42:05.800Z,92766.20
2024-01-16T05:44:33.520Z,92773.00
2024-01-16T05:47:01.195Z,92775.20
2024-01-16T05:49:29.029Z,92776.40
2024-01-16T05:51:56.656Z,92773.00
2024-01-16T05:54:24.290Z,92774.00
2024-01-16T05:56:51.993Z,92774.40
2024-01-16T05:59:19.950Z,92783.20
2024-01-16T06:01:47.595Z,92781.40
2024-01-16T06:04:15.189Z,92785.80
2024-01-16T06:06:46.952Z,92794.20
2024-01-16T06:09:15.599Z,92789.60
2024-01-16T06:11:43.815Z,92794.60
2024-01-16T06:14:13.519Z,92800.00
2024-01-16T06:16:41.236Z,92803.60
2024-01-16T06:19:09.736Z,92807.00
2024-01-16T06:21:37.609Z,92811.20
2024-01-16T06:24:05.315Z,92816.40
2024-01-16T06:26:32.972Z,92825.80
2024-01-16T06:29:00.872Z,92825.80
2024-01-16T06:31:28.571Z,92828.80
2024-01-16T06:33:57.081Z,92830.60
2024-01-16T06:36:25.022Z,92833.40
2024-01-16T06:38:52.647Z,92839.00
2024-01-16T06:41:20.538Z,92842.40
2024-01-16T06:43:48.179Z,92845.00
2024-01-16T06:46:15.868Z,92848.20
2024-01-16T06:48:43.702Z,92848.60
2024-01-16T06:51:15.098Z,92852.00
2024-01-16T06:53:42.745Z,92856.60
2024-01-16T06:56:11.019Z,92860.60
2024-01-16T06:58:38.905Z,92863.20
2024-01-16T07:01:06.521Z,92865.00
2024-01-16T07:03:34.156Z,92870.40
2024-01-16T07:06:02.334Z,92872.40
2024-01-16T07:08:29.991Z,92874.80
2024-01-16T07:10:57.791Z,92879.60
2024-01-16T07:13:25.499Z,92880.40
2024-01-16T07:15:53.191Z,92893.20
2024-01-16T07:18:21.169Z,92900.80
2024-01-16T07:20:49.013Z,92906.40
2024-01-16T07:23:16.872Z,92904.80
2024-01-16T07:25:44.458Z,92909.80
2024-01-16T07:28:12.234Z,92912.80
2024-01-16T07:30:41.097Z,92914.80
2024-01-16T07:33:08.872Z,92919.40
2024-01-16T07:35:36.670Z,92925.20
2024-01-16T07:38:05.886Z,92928.80
2024-01-16T07:40:33.666Z,92931.00
2024-01-16T07:43:01.324Z,92934.80
2024-01-16T07:45:29.051Z,92941.80
2024-01-16T07:47:56.766Z,92940.00
2024-01-16T07:50:24.646Z,92942.00
2024-01-16T07:52:52.278Z,92942.80
2024-01-16T07:55:22.741Z,92946.80
2024-01-16T07:57:52.048Z,92950.20
2024-01-16T08:00:19.821Z,92952.00
2024-01-16T08:02:47.580Z,92946.80
2024-01-16T08:05:15.332Z,92949.60
2024-01-16T08:07:43.116Z,92958.60
2024-01-16T08:10:11.017Z,92963.80
2024-01-16T08:12:38.805Z,92967.00
2024-01-16T08:15:08.674Z,92977.60
2024-01-16T08:17:36.457Z,92980.20
2024-01-16T08:20:04.689Z,92985.60
2024-01-16T08:22:32.456Z,92991.20
2024-01-16T08:25:00.480Z,92991.80
2024-01-16T08:27:29.951Z,92999.60
2024-01-16T08:29:57.530Z,93007.00
2024-01-16T08:32:25.213Z,93015.20
2024-01-16T08:34:53.024Z,93020.80
2024-01-16T08:37:20.801Z,93026.20
2024-01-16T08:39:49.261Z,93021.60
2024-01-16T08:42:17.294Z,93031.00
2024-01-16T08:44:44.865Z,93021.60
2024-01-16T08:47:12.548Z,93021.80
2024-01-16T08:49:41.187Z,93028.00
2024-01-16T08:52:08.917Z,93030.20
2024-01-16T08:54:36.429Z,93035.40
2024-01-16T08:57:04.118Z,93038.00
2024-01-16T08:59:33.658Z,93044.80
2024-01-16T09:02:01.618Z,93051.60
2024-01-16T09:04:29.236Z,93049.00
2024-01-16T09:06:57.331Z,93053.20
2024-01-16T09:09:25.060Z,93058.20
2024-01-16T09:11:53.114Z,93060.80
2024-01-16T09:14:21.613Z,93061.20
2024-01-16T09:16:49.572Z,93059.00
2024-01-16T09:19:17.686Z,93062.60
2024-01-16T09:21:45.397Z,93067.00
2024-01-16T09:24:13.775Z,93065.40
2024-01-16T09:26:41.583Z,93066.20
2024-01-16T09:29:10.173Z,93064.80
2024-01-16T09:31:37.953Z,93061.40
2024-01-16T09:34:09.557Z,93064.60
2024-01-16T09:36:38.646Z,93066.20
2024-01-16T09:39:09.160Z,93064.40
2024-01-16T09:41:37.055Z,93058.80
2024-01-16T09:44:04.683Z,93059.20
2024-01-16T09:46:32.539Z,93060.20
2024-01-16T09:49:00.595Z,93061.80
2024-01-16T09:51:28.504Z,93064.20
2024-01-16T09:53:56.130Z,93066.80
2024-01-16T09:56:28.495Z,93067.00
2024-01-16T09:58:56.920Z,93072.20
2024-01-16T10:01:24.610Z,93081.00
2024-01-16T10:03:54.049Z,93078.40
2024-01-16T10:06:22.143Z,93075.20
2024-01-16T10:08:49.868Z,93076.20
2024-01-16T10:11:17.478Z,93074.80
2024-01-16T10:13:45.085Z,93076.00
2024-01-16T10:16:12.768Z,93078.40
2024-01-16T10:18:40.487Z,93077.60
2024-01-16T10:21:08.914Z,93084.80
2024-01-16T10:23:38.101Z,93085.40
2024-01-16T10:26:05.771Z,93085.40
2024-01-16T10:28:35.567Z,93080.40
2024-01-16T10:31:03.576Z,93086.40
2024-01-16T10:33:32.858Z,93086.80
2024-01-16T10:36:01.192Z,93090.20
2024-01-16T10:38:28.939Z,93087.60
2024-01-16T10:40:56.841Z,93090.40
2024-01-16T10:43:24.736Z,93095.40
2024-01-16T10:45:52.286Z,93094.00
2024-01-16T10:48:19.974Z,93097.00
2024-01-16T10:50:47.782Z,93101.80
2024-01-16T10:53:17.368Z,93100.60
2024-01-16T10:55:45.685Z,93095.80
2024-01-16T10:58:14.071Z,93096.80
2024-01-16T11:00:41.890Z,93097.40
2024-01-16T11:03:09.630Z,93094.20
2024-01-16T11:05:37.358Z,93098.20
2024-01-16T11:08:05.208Z,93096.40
2024-01-16T11:10:33.023Z,93101.00
2024-01-16T11:13:00.980Z,93102.80
2024-01-16T11:15:29.778Z,93108.60
2024-01-16T11:17:57.825Z,93105.40
2024-01-16T11:20:41.300Z,93106.80
2024-01-16T11:23:14.139Z,93111.80
2024-01-16T11:25:41.917Z,93119.20
2024-01-16T11:28:09.439Z,93114.60
2024-01-16T11:30:37.066Z,93119.20
2024-01-16T11:33:06.340Z,93112.80
2024-01-16T11:35:35.126Z,93113.20
2024-01-16T11:38:02.743Z,93118.80
2024-01-16T11:40:30.559Z,93117.60
2024-01-16T11:42:58.122Z,93120.00
2024-01-16T11:45:26.714Z,93123.40
2024-01-16T11:47:54.570Z,93128.40
2024-01-16T11:50:24.199Z,93130.20
2024-01-16T11:52:51.919Z,93130.60
2024-01-16T11:55:19.557Z,93137.20
2024-01-16T11:57:48.411Z,93144.00
2024-01-16T12:00:16.821Z,93149.80
2024-01-16T12:02:44.640Z,93146.80
2024-01-16T12:05:12.556Z,93153.20
2024-01-16T12:07:41.338Z,93155.40
2024-01-16T12:10:10.724Z,93163.00
2024-01-16T12:12:38.348Z,93166.40
2024-01-16T12:15:06.019Z,93169.20
2024-01-16T12:17:33.809Z,93161.00
2024-01-16T12:20:01.600Z,93162.80
2024-01-16T12:22:29.684Z,93159.60
2024-01-16T12:24:57.894Z,93159.20
2024-01-16T12:27:26.243Z,93157.20
2024-01-16T12:29:53.956Z,93159.20
2024-01-16T12:32:23.409Z,93156.80
2024-01-16T12:34:51.350Z,93163.60
2024-01-16T12:37:18.985Z,93166.40
2024-01-16T12:39:46.753Z,93167.40
2024-01-16T12:42:14.496Z,93167.80
2024-01-16T12:44:42.279Z,93159.80
2024-01-16T12:47:11.140Z,93161.20
2024-01-16T12:49:39.945Z,93167.20
2024-01-16T12:52:07.540Z,93166.80
2024-01-16T12:54:35.324Z,93170.60
2024-01-16T12:57:03.020Z,93170.80
2024-01-16T12:59:33.423Z,93168.00
2024-01-16T13:02:01.792Z,93170.00
2024-01-16T13:04:29.486Z,93168.20
2024-01-16T13:06:57.318Z,93167.60
2024-01-16T13:09:25.272Z,93168.60
2024-01-16T13:11:53.463Z,93171.00
2024-01-16T13:14:24.858Z,93176.00
2024-01-16T13:16:53.024Z,93177.20
2024-01-16T13:19:21.199Z,93177.80
2024-01-16T13:21:49.175Z,93180.80
2024-01-16T13:24:18.766Z,93176.60
2024-01-16T13:26:46.554Z,93178.80
2024-01-16T13:29:14.391Z,93188.60
2024-01-16T13:31:42.140Z,93189.60
2024-01-16T13:34:10.281Z,93183.00
2024-01-16T13:39:14.483Z,93187.40
2024-01-16T13:41:42.352Z,93190.40
2024-01-16T13:44:10.075Z,93195.40
2024-01-16T13:46:53.003Z,93199.00
2024-01-16T13:49:26.848Z,93204.40
2024-01-16T13:51:54.779Z,93214.40
2024-01-16T13:54:22.346Z,93216.60
2024-01-16T14:00:23.189Z,93228.60
2024-01-16T14:02:51.939Z,93224.00
2024-01-16T14:05:19.945Z,93226.20
2024-01-16T14:07:47.869Z,93224.20
2024-01-16T14:10:15.771Z,93224.40
2024-01-16T14:12:46.362Z,93219.80
2024-01-16T14:15:17.760Z,93222.80
2024-01-16T14:17:45.607Z,93224.60
2024-01-16T14:20:13.658Z,93230.40
2024-01-16T14:22:41.589Z,93230.60
2024-01-16T14:25:12.254Z,93231.00
2024-01-16T14:27:40.590Z,93235.00
2024-01-16T14:30:09.053Z,93238.40
2024-01-16T14:32:36.971Z,93242.00
2024-01-16T14:35:05.935Z,93246.40
2024-01-16T14:37:33.674Z,93249.20
2024-01-16T14:40:02.470Z,93255.00
2024-01-16T14:42:30.129Z,93253.60
2024-01-16T14:44:57.852Z,93253.60
2024-01-16T14:47:25.902Z,93256.80
2024-01-16T14:49:56.160Z,93254.00
2024-01-16T14:52:26.280Z,93256.40
2024-01-16T14:54:53.983Z,93259.40
2024-01-16T14:57:21.829Z,93263.40
2024-01-16T14:59:49.748Z,93275.20
2024-01-16T15:02:17.849Z,93277.00
2024-01-16T15:04:47.349Z,93278.20
2024-01-16T15:07:15.425Z,93284.00
2024-01-16T15:09:43.191Z,93289.20
2024-01-16T15:12:11.017Z,93292.40
2024-01-16T15:14:38.885Z,93297.20
2024-01-16T15:17:08.488Z,93298.60
2024-01-16T15:19:36.493Z,93307.00
2024-01-16T15:22:04.362Z,93316.20
2024-01-16T15:24:32.131Z,93315.60
2024-01-16T15:26:59.932Z,93318.20
2024-01-16T15:29:27.876Z,93322.80
2024-01-16T15:31:55.716Z,93322.40
2024-01-16T15:34:23.575Z,93319.60
2024-01-16T15:36:51.416Z,93320.80
2024-01-16T15:39:20.014Z,93324.80
2024-01-16T15:41:47.820Z,93324.80
2024-01-16T15:44:15.794Z,93333.60
2024-01-16T15:46:43.553Z,93334.00
2024-01-16T15:49:11.262Z,93335.60
2024-01-16T15:51:42.473Z,93334.60
2024-01-16T15:54:10.390Z,93339.40
2024-01-16T15:56:38.228Z,93336.80
2024-01-16T15:59:06.285Z,93336.80
2024-01-16T16:01:34.258Z,93336.60
2024-01-16T16:04:01.933Z,93339.60
2024-01-16T16:06:29.929Z,93343.40
2024-01-16T16:08:57.849Z,93344.80
2024-01-16T16:11:25.718Z,93350.20
2024-01-16T16:13:53.984Z,93352.60
2024-01-16T16:16:21.901Z,93363.40
2024-01-16T16:18:49.735Z,93367.20
2024-01-16T16:21:17.758Z,93368.60
2024-01-16T16:23:46.506Z,93366.60
2024-01-16T16:26:14.163Z,93376.20
2024-01-16T16:28:42.187Z,93381.00
2024-01-16T16:31:11.333Z,93383.80
2024-01-16T16:33:39.136Z,93390.60
2024-01-16T16:36:07.062Z,93390.60
2024-01-16T16:38:34.986Z,93396.00
2024-01-16T16:41:03.299Z,93394.80
2024-01-16T16:43:31.001Z,93398.20
2024-01-16T16:45:59.947Z,93397.40
2024-01-16T16:48:27.786Z,93402.00
2024-01-16T16:50:55.629Z,93404.20
2024-01-16T16:53:25.164Z,93404.20
2024-01-16T16:55:54.317Z,93406.20
2024-01-16T16:58:22.083Z,93403.00
2024-01-16T17:00:50.917Z,93402.20
2024-01-16T17:03:18.636Z,93395.60
2024-01-16T17:05:46.657Z,93394.40
2024-01-16T17:08:14.552Z,93390.20
2024-01-16T17:10:43.168Z,93391.00
2024-01-16T17:13:11.023Z,93393.80
2024-01-16T17:15:38.761Z,93401.20
2024-01-16T17:18:07.970Z,93403.80
2024-01-16T17:20:35.814Z,93405.20
2024-01-16T17:23:03.606Z,93411.20
2024-01-16T17:25:31.263Z,93409.60
2024-01-16T17:27:59.648Z,93411.00
2024-01-16T17:30:27.353Z,93410.20
2024-01-16T17:32:55.249Z,93416.60
2024-01-16T17:35:25.244Z,93424.20
2024-01-16T17:37:53.076Z,93422.80
2024-01-16T17:40:20.747Z,93424.00
2024-01-16T17:42:49.093Z,93424.60
2024-01-16T17:45:16.850Z,93434.60
2024-01-16T17:47:44.660Z,93438.60
2024-01-16T17:50:13.320Z,93443.00
2024-01-16T17:52:40.943Z,93446.40
2024-01-16T17:55:10.056Z,93449.40
2024-01-16T17:57:37.762Z,93451.80
2024-01-16T18:00:07.023Z,93449.40
2024-01-16T18:02:34.864Z,93451.80
2024-01-16T18:05:11.522Z,93456.60
2024-01-16T18:07:39.615Z,93457.40
2024-01-16T18:10:10.406Z,93459.60
2024-01-16T18:12:38.202Z,93459.80
2024-01-16T18:15:06.245Z,93465.00
2024-01-16T18:17:33.963Z,93460.60
2024-01-16T18:20:01.837Z,93468.00
2024-01-16T18:22:29.508Z,93473.20
2024-01-16T18:24:57.157Z,93468.80
2024-01-16T18:27:24.835Z,93470.80
2024-01-16T18:29:52.551Z,93467.60
2024-01-16T18:32:20.445Z,93470.20
2024-01-16T18:34:48.537Z,93473.20
2024-01-16T18:37:17.671Z,93474.40
2024-01-16T18:39:45.385Z,93475.40
2024-01-16T18:42:13.208Z,93470.20
2024-01-16T18:44:40.944Z,93470.60
2024-01-16T18:47:08.531Z,93469.00
2024-01-16T18:49:36.491Z,93471.80
2024-01-16T18:52:07.175Z,93469.80
2024-01-16T18:54:35.645Z,93470.20
2024-01-16T18:57:04.051Z,93470.20
2024-01-16T18:59:32.063Z,93479.60
2024-01-16T19:02:00.072Z,93482.00
2024-01-16T19:04:30.685Z,93483.40
2024-01-16T19:07:01.182Z,93485.80
2024-01-16T19:09:38.080Z,93487.80
2024-01-16T19:12:07.135Z,93484.40
2024-01-16T19:14:35.034Z,93487.40
2024-01-16T19:17:02.826Z,93490.80
2024-01-16T19:19:30.565Z,93491.80
2024-01-16T19:21:59.632Z,93494.80
2024-01-16T19:24:28.340Z,93493.00
2024-01-16T19:26:58.829Z,93496.40
2024-01-16T19:29:26.995Z,93500.60
2024-01-16T19:31:54.639Z,93502.40
2024-01-16T19:34:22.303Z,93511.20
2024-01-16T19:36:51.108Z,93510.00
2024-01-16T19:39:22.378Z,93509.40
2024-01-16T19:41:50.170Z,93510.40
2024-01-16T19:44:18.124Z,93509.80
2024-01-16T19:46:46.582Z,93516.00
2024-01-16T19:49:14.752Z,93515.00
2024-01-16T19:51:42.615Z,93513.40
2024-01-16T19:54:10.501Z,93509.40
2024-01-16T19:56:41.381Z,93506.60
2024-01-16T19:59:12.656Z,93509.80
2024-01-16T20:01:40.836Z,93510.40
2024-01-16T20:04:08.509Z,93509.80
2024-01-16T20:06:37.919Z,93511.60
2024-01-16T20:09:07.375Z,93511.80
2024-01-16T20:11:35.427Z,93512.60
2024-01-16T20:14:03.427Z,93513.60
2024-01-16T20:16:31.220Z,93519.00
2024-01-16T20:18:59.067Z,93514.20
2024-01-16T20:21:30.032Z,93515.00
2024-01-16T20:23:58.016Z,93526.20
2024-01-16T20:26:27.101Z,93526.20
2024-01-16T20:28:55.253Z,93525.20
2024-01-16T20:31:23.381Z,93529.20
2024-01-16T20:33:51.364Z,93534.40
2024-01-16T20:36:19.365Z,93536.20
2024-01-16T20:38:48.697Z,93536.20
2024-01-16T20:41:16.881Z,93537.40
2024-01-16T20:43:45.298Z,93544.20
2024-01-16T20:46:13.119Z,93540.80
2024-01-16T20:48:41.447Z,93546.60
2024-01-16T20:51:13.244Z,93554.20
2024-01-16T20:53:40.989Z,93558.00
2024-01-16T20:56:08.622Z,93556.80
2024-01-16T20:58:37.022Z,93547.20
2024-01-16T21:01:04.937Z,93546.80
2024-01-16T21:03:33.218Z,93543.00
2024-01-16T21:06:03.402Z,93533.00
2024-01-16T21:08:32.490Z,93530.80
2024-01-16T21:11:00.533Z,93530.80
2024-01-16T21:13:29.229Z,93528.40
2024-01-16T21:15:57.953Z,93536.00
2024-01-16T21:18:31.040Z,93532.80
2024-01-16T21:20:59.938Z,93535.40
2024-01-16T21:23:27.642Z,93531.60
2024-01-16T21:25:55.521Z,93531.00
2024-01-16T21:28:24.570Z,93537.60
2024-01-16T21:30:55.799Z,93538.20
2024-01-16T21:33:23.784Z,93539.00
2024-01-16T21:35:53.108Z,93541.60
2024-01-16T21:38:21.048Z,93542.20
2024-01-16T21:40:49.392Z,93546.40
2024-01-16T21:43:17.161Z,93546.80
2024-01-16T21:45:45.020Z,93550.60
2024-01-16T21:48:12.748Z,93558.20
2024-01-16T21:50:40.783Z,93556.00
2024-01-16T21:53:08.645Z,93552.20
2024-01-16T21:55:36.440Z,93551.60
2024-01-16T21:58:04.385Z,93554.00
2024-01-16T22:00:32.652Z,93555.20
2024-01-16T22:03:00.986Z,93547.00
2024-01-16T22:05:29.273Z,93549.80
2024-01-16T22:07:57.069Z,93548.60
2024-01-16T22:10:24.833Z,93548.40
2024-01-16T22:12:52.500Z,93547.00
2024-01-16T22:15:20.069Z,93548.80
2024-01-16T22:17:48.724Z,93547.00
2024-01-16T22:20:17.724Z,93545.60
2024-01-16T22:22:45.426Z,93545.60
2024-01-16T22:25:13.630Z,93548.40
2024-01-16T22:27:41.250Z,93540.60
2024-01-16T22:30:09.403Z,93541.00
2024-01-16T22:32:37.240Z,93540.20
2024-01-16T22:35:05.070Z,93538.00
2024-01-16T22:37:33.273Z,93540.40
2024-01-16T22:40:01.449Z,93539.80
2024-01-16T22:42:29.264Z,93546.40
2024-01-16T22:44:57.262Z,93540.40
2024-01-16T22:47:25.241Z,93536.80
2024-01-16T22:49:53.124Z,93544.00
2024-01-16T22:52:20.852Z,93535.40
2024-01-16T22:54:48.430Z,93534.40
2024-01-16T22:57:16.173Z,93537.00
2024-01-16T22:59:43.902Z,93536.80
2024-01-16T23:02:11.986Z,93534.20
2024-01-16T23:04:40.109Z,93525.80
2024-01-16T23:07:08.550Z,93523.00
2024-01-16T23:09:36.306Z,93521.40
2024-01-16T23:12:04.091Z,93514.60
2024-01-16T23:14:32.307Z,93515.60
2024-01-16T23:16:59.905Z,93516.40
2024-01-16T23:19:27.813Z,93522.60
2024-01-16T23:21:55.781Z,93514.80
2024-01-16T23:24:23.398Z,93514.40
2024-01-16T23:26:51.161Z,93508.80
2024-01-16T23:29:18.811Z,93516.80
2024-01-16T23:31:46.681Z,93515.00
2024-01-16T23:34:14.550Z,93513.00
2024-01-16T23:36:42.122Z,93521.40
2024-01-16T23:39:12.081Z,93514.20
2024-01-16T23:41:40.156Z,93519.60
2024-01-16T23:44:09.557Z,93523.60
2024-01-16T23:46:40.108Z,93513.80
2024-01-16T23:49:07.932Z,93523.20
2024-01-16T23:51:36.861Z,93521.40
2024-01-16T23:54:04.531Z,93517.40
2024-01-16T23:56:32.425Z,93521.40
2024-01-16T23:59:00.853Z,93515.40
